sensor_id;sensor_type;location;lat;lon;timestamp;P1;durP1;ratioP1;P2;durP2;ratioP2
17937;SDS011;16051;53.024;8.630;2022-11-21T00:08:50;20.90;;;13.23;;
17937;SDS011;16051;53.024;8.630;2022-11-21T00:12:52;19.10;;;12.80;;
17937;SDS011;16051;53.024;8.630;2022-11-21T00:16:57;17.93;;;12.90;;
17937;SDS011;16051;53.024;8.630;2022-11-21T00:25:21;15.03;;;11.17;;
17937;SDS011;16051;53.024;8.630;2022-11-21T00:29:23;20.87;;;13.00;;
17937;SDS011;16051;53.024;8.630;2022-11-21T00:33:27;18.33;;;12.53;;
17937;SDS011;16051;53.024;8.630;2022-11-21T00:37:30;18.90;;;12.70;;
17937;SDS011;16051;53.024;8.630;2022-11-21T00:41:34;18.07;;;12.10;;
17937;SDS011;16051;53.024;8.630;2022-11-21T00:45:36;18.70;;;12.43;;
17937;SDS011;16051;53.024;8.630;2022-11-21T00:49:41;18.03;;;12.33;;
17937;SDS011;16051;53.024;8.630;2022-11-21T00:53:43;18.80;;;12.57;;
17937;SDS011;16051;53.024;8.630;2022-11-21T00:57:45;18.43;;;12.20;;
17937;SDS011;16051;53.024;8.630;2022-11-21T01:01:47;17.23;;;11.50;;
17937;SDS011;16051;53.024;8.630;2022-11-21T01:05:51;20.00;;;12.50;;
17937;SDS011;16051;53.024;8.630;2022-11-21T01:09:53;17.53;;;11.73;;
17937;SDS011;16051;53.024;8.630;2022-11-21T01:13:55;18.50;;;12.47;;
17937;SDS011;16051;53.024;8.630;2022-11-21T01:17:58;17.70;;;12.63;;
17937;SDS011;16051;53.024;8.630;2022-11-21T01:22:01;17.97;;;12.00;;
17937;SDS011;16051;53.024;8.630;2022-11-21T01:26:04;16.77;;;10.97;;
17937;SDS011;16051;53.024;8.630;2022-11-21T01:30:10;19.13;;;13.17;;
17937;SDS011;16051;53.024;8.630;2022-11-21T01:34:13;19.47;;;12.60;;
17937;SDS011;16051;53.024;8.630;2022-11-21T01:38:17;18.57;;;12.60;;
17937;SDS011;16051;53.024;8.630;2022-11-21T01:42:19;17.40;;;12.43;;
17937;SDS011;16051;53.024;8.630;2022-11-21T01:46:21;17.50;;;11.80;;
17937;SDS011;16051;53.024;8.630;2022-11-21T01:50:24;17.33;;;11.90;;
17937;SDS011;16051;53.024;8.630;2022-11-21T01:58:48;19.33;;;12.37;;
17937;SDS011;16051;53.024;8.630;2022-11-21T02:02:57;15.40;;;11.53;;
17937;SDS011;16051;53.024;8.630;2022-11-21T02:07:05;18.40;;;11.93;;
17937;SDS011;16051;53.024;8.630;2022-11-21T02:11:13;16.67;;;11.90;;
17937;SDS011;16051;53.024;8.630;2022-11-21T02:15:27;16.03;;;11.80;;
17937;SDS011;16051;53.024;8.630;2022-11-21T02:19:32;17.10;;;11.87;;
17937;SDS011;16051;53.024;8.630;2022-11-21T02:23:46;17.50;;;11.07;;
17937;SDS011;16051;53.024;8.630;2022-11-21T02:28:00;20.10;;;12.50;;
17937;SDS011;16051;53.024;8.630;2022-11-21T02:32:04;17.77;;;13.20;;
17937;SDS011;16051;53.024;8.630;2022-11-21T02:40:47;18.17;;;11.77;;
17937;SDS011;16051;53.024;8.630;2022-11-21T02:44:56;14.83;;;10.97;;
17937;SDS011;16051;53.024;8.630;2022-11-21T02:49:14;17.27;;;11.70;;
17937;SDS011;16051;53.024;8.630;2022-11-21T02:53:24;18.20;;;13.00;;
17937;SDS011;16051;53.024;8.630;2022-11-21T02:57:27;17.53;;;11.30;;
17937;SDS011;16051;53.024;8.630;2022-11-21T03:01:30;18.50;;;11.30;;
17937;SDS011;16051;53.024;8.630;2022-11-21T03:05:33;16.67;;;11.67;;
17937;SDS011;16051;53.024;8.630;2022-11-21T03:09:35;16.10;;;11.07;;
17937;SDS011;16051;53.024;8.630;2022-11-21T03:13:37;17.40;;;12.10;;
17937;SDS011;16051;53.024;8.630;2022-11-21T03:17:41;19.13;;;12.60;;
17937;SDS011;16051;53.024;8.630;2022-11-21T03:21:43;19.97;;;12.03;;
17937;SDS011;16051;53.024;8.630;2022-11-21T03:25:45;14.03;;;11.13;;
17937;SDS011;16051;53.024;8.630;2022-11-21T03:29:47;14.77;;;10.73;;
17937;SDS011;16051;53.024;8.630;2022-11-21T03:33:50;16.00;;;11.23;;
17937;SDS011;16051;53.024;8.630;2022-11-21T03:37:52;15.77;;;10.33;;
17937;SDS011;16051;53.024;8.630;2022-11-21T03:42:01;15.97;;;11.17;;
17937;SDS011;16051;53.024;8.630;2022-11-21T03:46:04;15.23;;;10.73;;
17937;SDS011;16051;53.024;8.630;2022-11-21T03:50:08;15.70;;;10.77;;
17937;SDS011;16051;53.024;8.630;2022-11-21T03:54:11;15.17;;;11.73;;
17937;SDS011;16051;53.024;8.630;2022-11-21T04:03:30;14.90;;;10.10;;
17937;SDS011;16051;53.024;8.630;2022-11-21T04:07:34;15.87;;;10.97;;
17937;SDS011;16051;53.024;8.630;2022-11-21T04:11:36;18.00;;;10.57;;
17937;SDS011;16051;53.024;8.630;2022-11-21T04:15:46;17.20;;;10.70;;
17937;SDS011;16051;53.024;8.630;2022-11-21T04:19:48;17.00;;;11.23;;
17937;SDS011;16051;53.024;8.630;2022-11-21T04:23:51;15.70;;;12.00;;
17937;SDS011;16051;53.024;8.630;2022-11-21T04:27:54;16.47;;;10.67;;
17937;SDS011;16051;53.024;8.630;2022-11-21T04:31:57;19.87;;;11.90;;
17937;SDS011;16051;53.024;8.630;2022-11-21T04:35:59;17.23;;;11.77;;
17937;SDS011;16051;53.024;8.630;2022-11-21T04:40:02;15.47;;;11.37;;
17937;SDS011;16051;53.024;8.630;2022-11-21T04:44:06;18.00;;;11.27;;
17937;SDS011;16051;53.024;8.630;2022-11-21T04:48:08;17.63;;;11.30;;
17937;SDS011;16051;53.024;8.630;2022-11-21T04:52:10;17.70;;;11.77;;
17937;SDS011;16051;53.024;8.630;2022-11-21T04:56:18;19.43;;;12.10;;
17937;SDS011;16051;53.024;8.630;2022-11-21T05:00:20;17.73;;;11.27;;
17937;SDS011;16051;53.024;8.630;2022-11-21T05:04:22;16.93;;;12.33;;
17937;SDS011;16051;53.024;8.630;2022-11-21T05:08:24;17.40;;;12.23;;
17937;SDS011;16051;53.024;8.630;2022-11-21T05:12:27;17.10;;;11.57;;
17937;SDS011;16051;53.024;8.630;2022-11-21T05:16:47;20.60;;;12.43;;
17937;SDS011;16051;53.024;8.630;2022-11-21T05:20:49;14.97;;;10.50;;
17937;SDS011;16051;53.024;8.630;2022-11-21T05:24:51;16.80;;;11.90;;
17937;SDS011;16051;53.024;8.630;2022-11-21T05:28:55;16.30;;;11.23;;
17937;SDS011;16051;53.024;8.630;2022-11-21T05:32:57;22.03;;;12.33;;
17937;SDS011;16051;53.024;8.630;2022-11-21T05:36:59;18.40;;;11.90;;
17937;SDS011;16051;53.024;8.630;2022-11-21T05:41:01;14.67;;;10.73;;
17937;SDS011;16051;53.024;8.630;2022-11-21T05:45:05;16.00;;;10.87;;
17937;SDS011;16051;53.024;8.630;2022-11-21T05:49:09;16.93;;;10.87;;
17937;SDS011;16051;53.024;8.630;2022-11-21T05:53:12;14.27;;;9.90;;
17937;SDS011;16051;53.024;8.630;2022-11-21T05:57:14;15.73;;;10.47;;
17937;SDS011;16051;53.024;8.630;2022-11-21T06:01:17;13.83;;;10.60;;
17937;SDS011;16051;53.024;8.630;2022-11-21T06:05:40;16.67;;;10.10;;
17937;SDS011;16051;53.024;8.630;2022-11-21T06:09:42;17.83;;;10.07;;
17937;SDS011;16051;53.024;8.630;2022-11-21T06:13:44;17.13;;;11.17;;
17937;SDS011;16051;53.024;8.630;2022-11-21T06:17:47;18.20;;;11.33;;
17937;SDS011;16051;53.024;8.630;2022-11-21T06:21:59;16.37;;;11.03;;
17937;SDS011;16051;53.024;8.630;2022-11-21T06:26:01;17.40;;;11.37;;
17937;SDS011;16051;53.024;8.630;2022-11-21T06:30:06;17.50;;;10.23;;
17937;SDS011;16051;53.024;8.630;2022-11-21T06:34:11;15.17;;;11.00;;
17937;SDS011;16051;53.024;8.630;2022-11-21T06:43:06;21.17;;;12.40;;
17937;SDS011;16051;53.024;8.630;2022-11-21T06:47:10;23.10;;;12.37;;
17937;SDS011;16051;53.024;8.630;2022-11-21T06:55:49;14.37;;;10.67;;
17937;SDS011;16051;53.024;8.630;2022-11-21T06:59:51;15.70;;;10.80;;
17937;SDS011;16051;53.024;8.630;2022-11-21T07:03:53;22.40;;;13.37;;
17937;SDS011;16051;53.024;8.630;2022-11-21T07:08:03;37.80;;;20.80;;
17937;SDS011;16051;53.024;8.630;2022-11-21T07:12:05;21.47;;;13.43;;
17937;SDS011;16051;53.024;8.630;2022-11-21T07:16:26;21.37;;;14.63;;
17937;SDS011;16051;53.024;8.630;2022-11-21T07:20:30;23.10;;;14.93;;
17937;SDS011;16051;53.024;8.630;2022-11-21T07:24:35;18.40;;;12.47;;
17937;SDS011;16051;53.024;8.630;2022-11-21T07:28:37;17.03;;;11.57;;
17937;SDS011;16051;53.024;8.630;2022-11-21T07:32:39;15.90;;;11.10;;
17937;SDS011;16051;53.024;8.630;2022-11-21T07:36:41;20.30;;;12.40;;
17937;SDS011;16051;53.024;8.630;2022-11-21T07:40:45;15.80;;;11.23;;
17937;SDS011;16051;53.024;8.630;2022-11-21T07:44:47;18.33;;;12.27;;
17937;SDS011;16051;53.024;8.630;2022-11-21T07:48:49;16.13;;;11.13;;
17937;SDS011;16051;53.024;8.630;2022-11-21T07:52:55;20.07;;;12.63;;
17937;SDS011;16051;53.024;8.630;2022-11-21T07:57:00;16.30;;;11.57;;
17937;SDS011;16051;53.024;8.630;2022-11-21T08:05:35;19.23;;;12.80;;
17937;SDS011;16051;53.024;8.630;2022-11-21T08:09:38;16.87;;;11.33;;
17937;SDS011;16051;53.024;8.630;2022-11-21T08:13:42;17.23;;;11.23;;
17937;SDS011;16051;53.024;8.630;2022-11-21T08:17:44;16.63;;;11.80;;
17937;SDS011;16051;53.024;8.630;2022-11-21T08:21:47;14.57;;;11.10;;
17937;SDS011;16051;53.024;8.630;2022-11-21T08:25:49;17.07;;;11.53;;
17937;SDS011;16051;53.024;8.630;2022-11-21T08:30:04;18.90;;;12.57;;
17937;SDS011;16051;53.024;8.630;2022-11-21T08:34:09;15.90;;;11.87;;
17937;SDS011;16051;53.024;8.630;2022-11-21T08:38:12;19.93;;;13.67;;
17937;SDS011;16051;53.024;8.630;2022-11-21T08:42:14;26.83;;;17.10;;
17937;SDS011;16051;53.024;8.630;2022-11-21T08:46:18;19.53;;;12.90;;
17937;SDS011;16051;53.024;8.630;2022-11-21T08:50:20;19.80;;;13.27;;
17937;SDS011;16051;53.024;8.630;2022-11-21T08:54:23;20.23;;;13.83;;
17937;SDS011;16051;53.024;8.630;2022-11-21T09:02:38;20.80;;;13.53;;
17937;SDS011;16051;53.024;8.630;2022-11-21T09:06:40;19.40;;;12.37;;
17937;SDS011;16051;53.024;8.630;2022-11-21T09:10:42;20.07;;;13.70;;
17937;SDS011;16051;53.024;8.630;2022-11-21T09:14:45;19.87;;;12.80;;
17937;SDS011;16051;53.024;8.630;2022-11-21T09:19:06;21.10;;;14.13;;
17937;SDS011;16051;53.024;8.630;2022-11-21T09:23:08;20.87;;;13.23;;
17937;SDS011;16051;53.024;8.630;2022-11-21T09:27:12;20.87;;;14.47;;
17937;SDS011;16051;53.024;8.630;2022-11-21T09:31:14;20.03;;;14.30;;
17937;SDS011;16051;53.024;8.630;2022-11-21T09:35:18;22.37;;;14.53;;
17937;SDS011;16051;53.024;8.630;2022-11-21T09:39:24;21.17;;;14.10;;
17937;SDS011;16051;53.024;8.630;2022-11-21T09:43:35;24.40;;;14.97;;
17937;SDS011;16051;53.024;8.630;2022-11-21T09:47:50;20.40;;;13.67;;
17937;SDS011;16051;53.024;8.630;2022-11-21T09:51:56;22.23;;;15.20;;
17937;SDS011;16051;53.024;8.630;2022-11-21T10:00:42;21.87;;;14.20;;
17937;SDS011;16051;53.024;8.630;2022-11-21T10:04:58;22.10;;;13.97;;
17937;SDS011;16051;53.024;8.630;2022-11-21T10:09:06;21.67;;;14.47;;
17937;SDS011;16051;53.024;8.630;2022-11-21T10:13:22;22.57;;;14.93;;
17937;SDS011;16051;53.024;8.630;2022-11-21T10:17:49;24.03;;;15.90;;
17937;SDS011;16051;53.024;8.630;2022-11-21T10:26:59;22.37;;;15.50;;
17937;SDS011;16051;53.024;8.630;2022-11-21T10:35:40;23.20;;;15.00;;
17937;SDS011;16051;53.024;8.630;2022-11-21T10:39:46;24.40;;;15.77;;
17937;SDS011;16051;53.024;8.630;2022-11-21T10:43:53;22.40;;;14.43;;
17937;SDS011;16051;53.024;8.630;2022-11-21T10:48:21;23.00;;;15.73;;
17937;SDS011;16051;53.024;8.630;2022-11-21T10:57:32;23.37;;;15.23;;
17937;SDS011;16051;53.024;8.630;2022-11-21T11:01:42;22.97;;;15.40;;
17937;SDS011;16051;53.024;8.630;2022-11-21T11:05:56;22.93;;;14.63;;
17937;SDS011;16051;53.024;8.630;2022-11-21T11:10:12;22.63;;;14.60;;
17937;SDS011;16051;53.024;8.630;2022-11-21T11:14:26;20.70;;;13.50;;
17937;SDS011;16051;53.024;8.630;2022-11-21T11:18:34;20.13;;;14.73;;
17937;SDS011;16051;53.024;8.630;2022-11-21T11:22:41;19.50;;;12.93;;
17937;SDS011;16051;53.024;8.630;2022-11-21T11:26:48;17.57;;;13.03;;
17937;SDS011;16051;53.024;8.630;2022-11-21T11:30:53;18.80;;;12.73;;
17937;SDS011;16051;53.024;8.630;2022-11-21T11:34:58;16.87;;;11.33;;
17937;SDS011;16051;53.024;8.630;2022-11-21T11:39:15;19.70;;;12.83;;
17937;SDS011;16051;53.024;8.630;2022-11-21T11:43:35;20.10;;;12.77;;
17937;SDS011;16051;53.024;8.630;2022-11-21T11:48:08;17.53;;;11.50;;
17937;SDS011;16051;53.024;8.630;2022-11-21T11:52:12;14.57;;;10.80;;
17937;SDS011;16051;53.024;8.630;2022-11-21T11:56:16;19.30;;;11.03;;
17937;SDS011;16051;53.024;8.630;2022-11-21T12:00:25;15.47;;;10.37;;
17937;SDS011;16051;53.024;8.630;2022-11-21T12:04:45;13.37;;;9.40;;
17937;SDS011;16051;53.024;8.630;2022-11-21T12:09:00;13.67;;;9.17;;
17937;SDS011;16051;53.024;8.630;2022-11-21T12:13:13;14.20;;;8.53;;
17937;SDS011;16051;53.024;8.630;2022-11-21T12:17:24;11.73;;;8.43;;
17937;SDS011;16051;53.024;8.630;2022-11-21T12:21:42;13.77;;;9.07;;
17937;SDS011;16051;53.024;8.630;2022-11-21T12:25:49;11.30;;;7.90;;
17937;SDS011;16051;53.024;8.630;2022-11-21T12:34:55;11.50;;;7.77;;
17937;SDS011;16051;53.024;8.630;2022-11-21T12:44:04;7.47;;;6.33;;
17937;SDS011;16051;53.024;8.630;2022-11-21T12:48:47;10.53;;;8.23;;
17937;SDS011;16051;53.024;8.630;2022-11-21T12:53:21;10.27;;;6.60;;
17937;SDS011;16051;53.024;8.630;2022-11-21T12:57:57;8.33;;;6.20;;
17937;SDS011;16051;53.024;8.630;2022-11-21T13:02:26;7.83;;;5.87;;
17937;SDS011;16051;53.024;8.630;2022-11-21T13:06:46;6.87;;;5.10;;
17937;SDS011;16051;53.024;8.630;2022-11-21T13:10:51;7.97;;;5.90;;
17937;SDS011;16051;53.024;8.630;2022-11-21T13:15:20;6.83;;;5.33;;
17937;SDS011;16051;53.024;8.630;2022-11-21T13:19:33;7.87;;;5.63;;
17937;SDS011;16051;53.024;8.630;2022-11-21T13:23:45;8.63;;;5.97;;
17937;SDS011;16051;53.024;8.630;2022-11-21T13:32:36;10.20;;;6.50;;
17937;SDS011;16051;53.024;8.630;2022-11-21T13:36:40;9.57;;;6.73;;
17937;SDS011;16051;53.024;8.630;2022-11-21T13:40:43;9.77;;;6.97;;
17937;SDS011;16051;53.024;8.630;2022-11-21T13:49:51;8.73;;;6.67;;
17937;SDS011;16051;53.024;8.630;2022-11-21T13:59:37;10.53;;;6.73;;
17937;SDS011;16051;53.024;8.630;2022-11-21T14:04:08;12.43;;;8.53;;
17937;SDS011;16051;53.024;8.630;2022-11-21T14:09:05;11.80;;;8.10;;
17937;SDS011;16051;53.024;8.630;2022-11-21T14:13:33;11.43;;;7.60;;
17937;SDS011;16051;53.024;8.630;2022-11-21T14:17:45;12.03;;;7.30;;
17937;SDS011;16051;53.024;8.630;2022-11-21T14:21:55;11.03;;;7.33;;
17937;SDS011;16051;53.024;8.630;2022-11-21T14:30:43;10.53;;;7.23;;
17937;SDS011;16051;53.024;8.630;2022-11-21T14:34:45;10.97;;;7.53;;
17937;SDS011;16051;53.024;8.630;2022-11-21T14:38:48;11.93;;;8.40;;
17937;SDS011;16051;53.024;8.630;2022-11-21T14:42:52;11.70;;;7.53;;
17937;SDS011;16051;53.024;8.630;2022-11-21T14:47:04;12.67;;;8.10;;
17937;SDS011;16051;53.024;8.630;2022-11-21T14:51:15;11.30;;;7.43;;
17937;SDS011;16051;53.024;8.630;2022-11-21T14:55:28;11.47;;;8.13;;
17937;SDS011;16051;53.024;8.630;2022-11-21T14:59:35;11.03;;;7.23;;
17937;SDS011;16051;53.024;8.630;2022-11-21T15:03:43;11.70;;;7.87;;
17937;SDS011;16051;53.024;8.630;2022-11-21T15:07:57;11.63;;;8.17;;
17937;SDS011;16051;53.024;8.630;2022-11-21T15:12:00;12.87;;;7.43;;
17937;SDS011;16051;53.024;8.630;2022-11-21T15:16:07;11.40;;;8.00;;
17937;SDS011;16051;53.024;8.630;2022-11-21T15:20:17;13.60;;;8.40;;
17937;SDS011;16051;53.024;8.630;2022-11-21T15:24:28;14.87;;;9.20;;
17937;SDS011;16051;53.024;8.630;2022-11-21T15:28:36;15.93;;;9.73;;
17937;SDS011;16051;53.024;8.630;2022-11-21T15:37:13;14.10;;;9.63;;
17937;SDS011;16051;53.024;8.630;2022-11-21T15:41:25;17.40;;;10.43;;
17937;SDS011;16051;53.024;8.630;2022-11-21T15:45:30;13.27;;;9.37;;
17937;SDS011;16051;53.024;8.630;2022-11-21T15:49:33;15.30;;;10.60;;
17937;SDS011;16051;53.024;8.630;2022-11-21T15:53:38;17.17;;;11.10;;
17937;SDS011;16051;53.024;8.630;2022-11-21T15:57:41;15.10;;;11.27;;
17937;SDS011;16051;53.024;8.630;2022-11-21T16:01:43;17.63;;;11.03;;
17937;SDS011;16051;53.024;8.630;2022-11-21T16:05:45;15.40;;;10.93;;
17937;SDS011;16051;53.024;8.630;2022-11-21T16:14:20;18.37;;;11.87;;
17937;SDS011;16051;53.024;8.630;2022-11-21T16:18:24;18.30;;;11.13;;
17937;SDS011;16051;53.024;8.630;2022-11-21T16:22:27;13.60;;;9.67;;
17937;SDS011;16051;53.024;8.630;2022-11-21T16:26:30;16.70;;;10.90;;
17937;SDS011;16051;53.024;8.630;2022-11-21T16:30:33;16.20;;;10.20;;
17937;SDS011;16051;53.024;8.630;2022-11-21T16:34:53;14.23;;;9.50;;
17937;SDS011;16051;53.024;8.630;2022-11-21T16:38:59;15.70;;;9.83;;
17937;SDS011;16051;53.024;8.630;2022-11-21T16:43:07;13.23;;;9.27;;
17937;SDS011;16051;53.024;8.630;2022-11-21T16:51:22;14.33;;;9.07;;
17937;SDS011;16051;53.024;8.630;2022-11-21T16:55:24;13.10;;;8.80;;
17937;SDS011;16051;53.024;8.630;2022-11-21T17:07:47;13.83;;;8.80;;
17937;SDS011;16051;53.024;8.630;2022-11-21T17:11:49;13.97;;;9.10;;
17937;SDS011;16051;53.024;8.630;2022-11-21T17:15:54;12.90;;;9.20;;
17937;SDS011;16051;53.024;8.630;2022-11-21T17:20:11;13.60;;;9.37;;
17937;SDS011;16051;53.024;8.630;2022-11-21T17:24:14;15.50;;;9.43;;
17937;SDS011;16051;53.024;8.630;2022-11-21T17:28:17;16.03;;;9.67;;
17937;SDS011;16051;53.024;8.630;2022-11-21T17:32:20;15.23;;;9.90;;
17937;SDS011;16051;53.024;8.630;2022-11-21T17:36:22;16.17;;;10.23;;
17937;SDS011;16051;53.024;8.630;2022-11-21T17:40:26;16.07;;;9.93;;
17937;SDS011;16051;53.024;8.630;2022-11-21T17:44:28;18.43;;;11.97;;
17937;SDS011;16051;53.024;8.630;2022-11-21T17:48:38;16.93;;;10.17;;
17937;SDS011;16051;53.024;8.630;2022-11-21T17:52:41;14.53;;;10.17;;
17937;SDS011;16051;53.024;8.630;2022-11-21T17:56:47;13.97;;;10.10;;
17937;SDS011;16051;53.024;8.630;2022-11-21T18:00:52;16.83;;;11.27;;
17937;SDS011;16051;53.024;8.630;2022-11-21T18:04:56;19.50;;;11.60;;
17937;SDS011;16051;53.024;8.630;2022-11-21T18:08:58;17.47;;;10.90;;
17937;SDS011;16051;53.024;8.630;2022-11-21T18:13:01;21.23;;;13.20;;
17937;SDS011;16051;53.024;8.630;2022-11-21T18:17:13;21.57;;;13.13;;
17937;SDS011;16051;53.024;8.630;2022-11-21T18:21:17;23.17;;;12.43;;
17937;SDS011;16051;53.024;8.630;2022-11-21T18:25:29;17.03;;;11.03;;
17937;SDS011;16051;53.024;8.630;2022-11-21T18:29:34;18.00;;;11.73;;
17937;SDS011;16051;53.024;8.630;2022-11-21T18:33:39;17.97;;;11.63;;
17937;SDS011;16051;53.024;8.630;2022-11-21T18:37:44;23.40;;;14.43;;
17937;SDS011;16051;53.024;8.630;2022-11-21T18:41:46;19.83;;;12.53;;
17937;SDS011;16051;53.024;8.630;2022-11-21T18:45:49;19.87;;;12.83;;
17937;SDS011;16051;53.024;8.630;2022-11-21T18:58:38;23.73;;;12.77;;
17937;SDS011;16051;53.024;8.630;2022-11-21T19:02:42;20.90;;;12.33;;
17937;SDS011;16051;53.024;8.630;2022-11-21T19:06:55;20.97;;;12.80;;
17937;SDS011;16051;53.024;8.630;2022-11-21T19:11:01;25.93;;;12.83;;
17937;SDS011;16051;53.024;8.630;2022-11-21T19:15:05;20.73;;;12.87;;
17937;SDS011;16051;53.024;8.630;2022-11-21T19:19:08;20.13;;;13.17;;
17937;SDS011;16051;53.024;8.630;2022-11-21T19:23:13;25.47;;;13.90;;
17937;SDS011;16051;53.024;8.630;2022-11-21T19:27:17;23.37;;;14.17;;
17937;SDS011;16051;53.024;8.630;2022-11-21T19:31:23;23.17;;;13.70;;
17937;SDS011;16051;53.024;8.630;2022-11-21T19:35:27;29.53;;;14.00;;
17937;SDS011;16051;53.024;8.630;2022-11-21T19:39:29;21.27;;;12.97;;
17937;SDS011;16051;53.024;8.630;2022-11-21T19:43:38;28.60;;;15.57;;
17937;SDS011;16051;53.024;8.630;2022-11-21T19:47:44;21.27;;;12.43;;
17937;SDS011;16051;53.024;8.630;2022-11-21T19:51:59;19.53;;;11.80;;
17937;SDS011;16051;53.024;8.630;2022-11-21T19:56:09;19.37;;;12.33;;
17937;SDS011;16051;53.024;8.630;2022-11-21T20:04:34;18.23;;;11.67;;
17937;SDS011;16051;53.024;8.630;2022-11-21T20:08:37;20.73;;;12.73;;
17937;SDS011;16051;53.024;8.630;2022-11-21T20:17:03;21.23;;;12.03;;
17937;SDS011;16051;53.024;8.630;2022-11-21T20:21:06;19.90;;;12.60;;
17937;SDS011;16051;53.024;8.630;2022-11-21T20:25:09;18.90;;;11.20;;
17937;SDS011;16051;53.024;8.630;2022-11-21T20:29:17;18.33;;;11.43;;
17937;SDS011;16051;53.024;8.630;2022-11-21T20:33:20;20.60;;;11.63;;
17937;SDS011;16051;53.024;8.630;2022-11-21T20:37:22;17.07;;;11.03;;
17937;SDS011;16051;53.024;8.630;2022-11-21T20:41:26;19.77;;;12.43;;
17937;SDS011;16051;53.024;8.630;2022-11-21T20:45:32;18.83;;;12.43;;
17937;SDS011;16051;53.024;8.630;2022-11-21T20:49:35;23.53;;;12.70;;
17937;SDS011;16051;53.024;8.630;2022-11-21T20:53:38;23.80;;;13.50;;
17937;SDS011;16051;53.024;8.630;2022-11-21T20:57:40;19.27;;;12.27;;
17937;SDS011;16051;53.024;8.630;2022-11-21T21:06:20;17.20;;;11.83;;
17937;SDS011;16051;53.024;8.630;2022-11-21T21:10:26;23.93;;;11.80;;
17937;SDS011;16051;53.024;8.630;2022-11-21T21:14:28;17.73;;;10.37;;
17937;SDS011;16051;53.024;8.630;2022-11-21T21:18:30;19.10;;;10.87;;
17937;SDS011;16051;53.024;8.630;2022-11-21T21:22:35;19.50;;;11.63;;
17937;SDS011;16051;53.024;8.630;2022-11-21T21:26:56;20.30;;;11.37;;
17937;SDS011;16051;53.024;8.630;2022-11-21T21:30:58;22.03;;;12.30;;
17937;SDS011;16051;53.024;8.630;2022-11-21T21:35:00;17.90;;;12.20;;
17937;SDS011;16051;53.024;8.630;2022-11-21T21:39:03;21.40;;;12.33;;
17937;SDS011;16051;53.024;8.630;2022-11-21T21:43:05;20.67;;;11.97;;
17937;SDS011;16051;53.024;8.630;2022-11-21T21:47:08;23.63;;;12.83;;
17937;SDS011;16051;53.024;8.630;2022-11-21T21:51:15;22.47;;;12.77;;
17937;SDS011;16051;53.024;8.630;2022-11-21T21:55:22;22.83;;;12.33;;
17937;SDS011;16051;53.024;8.630;2022-11-21T21:59:24;28.93;;;13.03;;
17937;SDS011;16051;53.024;8.630;2022-11-21T22:03:26;27.60;;;13.40;;
17937;SDS011;16051;53.024;8.630;2022-11-21T22:07:28;25.60;;;13.80;;
17937;SDS011;16051;53.024;8.630;2022-11-21T22:11:34;25.93;;;14.20;;
17937;SDS011;16051;53.024;8.630;2022-11-21T22:15:38;24.10;;;13.87;;
17937;SDS011;16051;53.024;8.630;2022-11-21T22:19:40;26.87;;;14.00;;
17937;SDS011;16051;53.024;8.630;2022-11-21T22:23:42;32.17;;;16.67;;
17937;SDS011;16051;53.024;8.630;2022-11-21T22:27:46;26.80;;;14.00;;
17937;SDS011;16051;53.024;8.630;2022-11-21T22:31:48;27.30;;;14.73;;
17937;SDS011;16051;53.024;8.630;2022-11-21T22:35:51;30.70;;;15.50;;
17937;SDS011;16051;53.024;8.630;2022-11-21T22:39:53;32.33;;;15.77;;
17937;SDS011;16051;53.024;8.630;2022-11-21T22:43:57;34.20;;;16.87;;
17937;SDS011;16051;53.024;8.630;2022-11-21T22:48:01;32.93;;;16.27;;
17937;SDS011;16051;53.024;8.630;2022-11-21T22:52:03;33.07;;;17.30;;
17937;SDS011;16051;53.024;8.630;2022-11-21T22:56:07;29.90;;;15.27;;
17937;SDS011;16051;53.024;8.630;2022-11-21T23:00:12;34.53;;;15.77;;
17937;SDS011;16051;53.024;8.630;2022-11-21T23:04:16;32.20;;;16.40;;
17937;SDS011;16051;53.024;8.630;2022-11-21T23:12:48;34.67;;;16.13;;
17937;SDS011;16051;53.024;8.630;2022-11-21T23:16:51;29.03;;;14.83;;
17937;SDS011;16051;53.024;8.630;2022-11-21T23:20:54;35.83;;;17.27;;
17937;SDS011;16051;53.024;8.630;2022-11-21T23:24:56;28.20;;;15.03;;
17937;SDS011;16051;53.024;8.630;2022-11-21T23:29:04;33.00;;;16.67;;
17937;SDS011;16051;53.024;8.630;2022-11-21T23:33:07;27.47;;;15.13;;
17937;SDS011;16051;53.024;8.630;2022-11-21T23:37:10;26.30;;;14.90;;
17937;SDS011;16051;53.024;8.630;2022-11-21T23:41:12;24.83;;;13.43;;
17937;SDS011;16051;53.024;8.630;2022-11-21T23:45:17;22.20;;;12.50;;
17937;SDS011;16051;53.024;8.630;2022-11-21T23:49:20;21.13;;;11.60;;
17937;SDS011;16051;53.024;8.630;2022-11-21T23:53:28;18.97;;;11.70;;
17937;SDS011;16051;53.024;8.630;2022-11-21T23:57:30;21.13;;;12.67;;
